This is the latest recevied weather packets stored in our database for station/object KD7AWQ. If no packets are shown the sender has not sent any weather packets the latest 1 day(s).
| Time | Temp. | Humidity | Pressure | Rain* | Wind** | Luminosity | Snow |
|---|---|---|---|---|---|---|---|
| 1778076842 | 13.89° C | 41% | 1185.7 hPa | 0 mm | 1.79 m/s, 128° | 236 W/m² | - |
| 1778076540 | 14.44° C | 41% | 1185.4 hPa | 0 mm | 2.24 m/s, 143° | 214 W/m² | - |
| 1778076236 | 14.44° C | 37% | 1185.3 hPa | 0 mm | 0.45 m/s, 47° | 193 W/m² | - |
| 1778075934 | 14.44° C | 39% | 1185 hPa | 0 mm | 0.45 m/s, 39° | 173 W/m² | - |
| 1778075630 | 13.89° C | 39% | 1185.3 hPa | 0 mm | 0 m/s | 156 W/m² | - |
| 1778075326 | 13.89° C | 40% | 1185.3 hPa | 0 mm | 0.89 m/s, 10° | 138 W/m² | - |
| 1778075023 | 13.33° C | 41% | 1184.9 hPa | 0 mm | 0.89 m/s, 351° | 48 W/m² | - |
| 1778074720 | 13.33° C | 43% | 1185.2 hPa | 0 mm | 1.34 m/s, 329° | 105 W/m² | - |
| 1778074417 | 12.78° C | 43% | 1184.8 hPa | 0 mm | 1.34 m/s, 335° | 90 W/m² | - |
| 1778074113 | 12.78° C | 45% | 1185.2 hPa | 0 mm | 0.45 m/s, 337° | 78 W/m² | - |
| 1778073811 | 12.22° C | 45% | 1185.2 hPa | 0 mm | 0.45 m/s, 350° | 67 W/m² | - |
| 1778073509 | 11.67° C | 45% | 1185.2 hPa | 0 mm | 0.89 m/s, 339° | 58 W/m² | - |
| 1778073205 | 11.67° C | 46% | 1185 hPa | 0 mm | 1.34 m/s, 316° | 49 W/m² | - |
| 1778072902 | 11.67° C | 47% | 1185 hPa | 0 mm | 0.89 m/s, 332° | 41 W/m² | - |
| 1778072598 | 11.67° C | 46% | 1184.9 hPa | 0 mm | 0.89 m/s, 330° | 35 W/m² | - |
| 1778072296 | 11.11° C | 46% | 1184.6 hPa | 0 mm | 1.79 m/s, 320° | 30 W/m² | - |
| 1778071994 | 10.56° C | 47% | 1184.7 hPa | 0 mm | 2.24 m/s, 305° | 25 W/m² | - |
| 1778071693 | 10.56° C | 48% | 1184.4 hPa | 0 mm | 2.24 m/s, 317° | 20 W/m² | - |
| 1778071389 | 10.56° C | 48% | 1184.9 hPa | 0 mm | 1.34 m/s, 318° | 16 W/m² | - |
| 1778071087 | 10.56° C | 48% | 1184.6 hPa | 0 mm | 1.79 m/s, 291° | 11 W/m² | - |
| 1778070786 | 10.56° C | 48% | 1184.4 hPa | 0 mm | 1.34 m/s, 333° | 7 W/m² | - |
| 1778070482 | 10.56° C | 47% | 1184.5 hPa | 0 mm | 1.79 m/s, 312° | 4 W/m² | - |
| 1778070179 | 10.56° C | 48% | 1184.4 hPa | 0 mm | 2.68 m/s, 301° | 2 W/m² | - |
| 1778069877 | 10.56° C | 47% | 1184.6 hPa | 0 mm | 2.68 m/s, 309° | 1 W/m² | - |
| 1778069574 | 10.56° C | 47% | 1184.1 hPa | 0 mm | 2.68 m/s, 296° | 0 W/m² | - |
* Rain latest hour (hover to see other rain measurements)
** Current wind speed in m/s (hover to see current wind gust speed)